Terminal Aerodrome Forecast
Issued by NWS

Home | Current Version | Previous Version | Text Only | Print | Product List | Glossary On
Versions: 1 2 3 4 5 6 7 8 9 10 11 12 13 14 15
000
FTUS42 KMLB 242320
TAFTIX
TAF
KTIX 242320Z 2500/2524 10013KT P6SM SCT030 BKN060
     FM250200 11006KT P6SM SCT030 BKN060
     FM251500 12012G18KT P6SM SCT040
      AMD NOT SKED 2501/2511=

USA.gov is the U.S. government's official web portal to all federal, state and local government web resources and services.